createdAt,value
2018-10-11T14:15:00.706Z,23.29
2018-10-11T14:16:00.774Z,23.32
2018-10-11T14:17:01.214Z,23.32
2018-10-11T14:18:14.980Z,23.28
2018-10-11T14:19:05.546Z,23.37
2018-10-11T14:20:06.371Z,23.37
2018-10-11T14:21:06.137Z,23.32
2018-10-11T14:22:06.592Z,23.41
2018-10-11T14:23:07.057Z,23.4
2018-10-11T14:24:07.244Z,23.44
2018-10-11T14:25:07.171Z,23.34
2018-10-11T14:26:07.152Z,23.42
2018-10-11T14:27:07.311Z,23.5
2018-10-11T14:28:07.758Z,23.55
2018-10-11T14:29:07.931Z,23.59
2018-10-11T14:30:08.371Z,23.57
2018-10-11T14:31:08.136Z,23.57
2018-10-11T14:32:08.448Z,23.63
2018-10-11T14:33:08.512Z,23.7
2018-10-11T14:34:09.053Z,23.72
2018-10-11T14:35:08.787Z,23.72
2018-10-11T14:36:09.128Z,23.74
2018-10-11T14:37:09.846Z,23.67
2018-10-11T14:38:09.141Z,23.74
2018-10-11T14:39:08.643Z,23.7
2018-10-11T14:40:09.892Z,23.64
2018-10-11T14:41:09.146Z,23.72
2018-10-11T14:42:09.955Z,23.67
2018-10-11T14:43:08.934Z,23.77
2018-10-11T14:44:09.800Z,23.75
2018-10-11T14:45:09.894Z,23.87
2018-10-11T14:46:09.877Z,23.81
2018-10-11T14:47:09.902Z,23.84
2018-10-11T14:48:09.402Z,23.84
2018-10-11T14:49:09.997Z,23.87
2018-10-11T14:50:10.298Z,23.87
2018-10-11T14:51:10.442Z,23.87
2018-10-11T14:52:10.638Z,23.78
2018-10-11T14:53:10.697Z,23.66
2018-10-11T14:54:10.707Z,23.79
2018-10-11T14:55:10.974Z,23.7
2018-10-11T14:56:11.566Z,23.72
2018-10-11T14:57:11.751Z,23.7
2018-10-11T14:58:11.072Z,23.82
2018-10-11T14:59:11.399Z,23.77
2018-10-11T15:00:31.130Z,23.79
2018-10-11T15:01:31.161Z,23.78
2018-10-11T15:02:31.232Z,23.71
2018-10-11T15:03:31.443Z,23.71
2018-10-11T15:04:31.627Z,23.77
2018-10-11T15:05:32.478Z,23.71
2018-10-11T15:06:32.089Z,23.67
2018-10-11T15:07:32.311Z,23.66
2018-10-11T15:08:32.341Z,23.63
2018-10-11T15:09:32.094Z,23.59
2018-10-11T15:10:32.375Z,23.64
2018-10-11T15:11:32.035Z,23.52
2018-10-11T15:12:32.755Z,23.5
2018-10-11T15:13:32.815Z,23.57
2018-10-11T15:14:32.556Z,23.47
2018-10-11T15:15:33.288Z,23.45
2018-10-11T15:16:33.181Z,23.38
2018-10-11T15:17:33.622Z,23.37
2018-10-11T15:18:33.396Z,23.28
2018-10-11T15:19:33.999Z,23.37
2018-10-11T15:20:34.442Z,23.4
2018-10-11T15:21:34.190Z,23.37
2018-10-11T15:22:34.634Z,23.35
2018-10-11T15:23:34.807Z,23.28
2018-10-11T15:24:34.772Z,23.24
2018-10-11T15:25:35.482Z,23.24
2018-10-11T15:26:35.936Z,23.19
2018-10-11T15:27:35.678Z,23.19
2018-10-11T15:28:36.136Z,23.25
2018-10-11T15:29:36.060Z,23.26
2018-10-11T15:30:36.623Z,23.15
2018-10-11T15:31:37.172Z,23.21
2018-10-11T15:32:36.442Z,23.19
2018-10-11T15:33:36.881Z,23.15
2018-10-11T15:34:37.322Z,23.18
2018-10-11T15:35:37.351Z,23.09
2018-10-11T15:36:37.389Z,23.14
2018-10-11T15:37:37.482Z,23.06
2018-10-11T15:38:37.910Z,23.07
2018-10-11T15:39:38.085Z,23.09
2018-10-11T15:40:38.855Z,23.07
2018-10-11T15:41:38.868Z,23.07
2018-10-11T15:42:39.134Z,23.06
2018-10-11T15:43:38.955Z,22.92
2018-10-11T15:44:38.713Z,22.92
2018-10-11T15:45:38.954Z,22.86
2018-10-11T15:46:39.293Z,22.81
2018-10-11T15:47:39.246Z,22.79
2018-10-11T15:48:39.544Z,22.75
2018-10-11T15:49:39.994Z,22.81
2018-10-11T15:50:40.488Z,22.7
2018-10-11T15:51:39.960Z,22.69
2018-10-11T15:52:41.198Z,22.66
2018-10-11T15:53:40.567Z,22.6
2018-10-11T15:54:40.621Z,22.63
2018-10-11T15:55:41.140Z,22.54
2018-10-11T15:56:41.408Z,22.63
2018-10-11T15:57:41.383Z,22.51
2018-10-11T15:58:41.990Z,22.46
2018-10-11T15:59:41.754Z,22.51
2018-10-11T16:00:42.618Z,22.44
2018-10-11T16:01:43.219Z,22.29
2018-10-11T16:02:43.752Z,22.31
2018-10-11T16:03:42.524Z,22.34
2018-10-11T16:04:43.776Z,22.3
2018-10-11T16:05:47.066Z,22.18
2018-10-11T16:06:48.525Z,22.23
2018-10-11T16:07:50.323Z,22.18
2018-10-11T16:08:48.957Z,22.16
2018-10-11T16:09:45.856Z,22.2
2018-10-11T16:10:46.264Z,22.12
2018-10-11T16:11:45.264Z,22
2018-10-11T16:12:46.838Z,22.02
2018-10-11T16:13:46.279Z,22
